This is the latest recevied weather packets stored in our database for station/object DK6GC-10. If no packets are shown the sender has not sent any weather packets the latest 10 day(s).
| Time | Temp. | Humidity | Pressure | Rain* | Wind** | Luminosity | Snow |
|---|---|---|---|---|---|---|---|
| 1787452222 | 11.11° C | 95% | 1023.6 hPa | - | - | - | - |
| 1787451322 | 11.11° C | 95% | 1023.7 hPa | - | - | - | - |
| 1787450422 | 11.11° C | 94% | 1023.6 hPa | - | - | - | - |
| 1787449522 | 11.67° C | 94% | 1023.5 hPa | - | - | - | - |
| 1787448621 | 11.67° C | 93% | 1023.5 hPa | - | - | - | - |
| 1787447720 | 12.22° C | 89% | 1023.5 hPa | - | - | - | - |
| 1787446820 | 11.67° C | 94% | 1023.6 hPa | - | - | - | - |
| 1787445920 | 11.67° C | 95% | 1023.5 hPa | - | - | - | - |
| 1787445020 | 11.67° C | 94% | 1023.5 hPa | - | - | - | - |
| 1787444120 | 11.67° C | 94% | 1023.4 hPa | - | - | - | - |
| 1787443225 | 12.22° C | 93% | 1023.5 hPa | - | - | - | - |
| 1787442324 | 12.22° C | 92% | 1023.6 hPa | - | - | - | - |
| 1787441424 | 12.22° C | 91% | 1023.7 hPa | - | - | - | - |
| 1787440524 | 12.78° C | 90% | 1023.7 hPa | - | - | - | - |
| 1787439624 | 12.78° C | 89% | 1023.6 hPa | - | - | - | - |
| 1787438724 | 13.33° C | 89% | 1023.6 hPa | - | - | - | - |
| 1787437824 | 13.89° C | 83% | 1023.6 hPa | - | - | - | - |
| 1787436923 | 14.44° C | 82% | 1023.5 hPa | - | - | - | - |
| 1787436023 | 13.33° C | 90% | 1023.4 hPa | - | - | - | - |
| 1787435123 | 13.33° C | 89% | 1023.4 hPa | - | - | - | - |
| 1787434223 | 13.89° C | 85% | 1023.4 hPa | - | - | - | - |
| 1787433323 | 13.33° C | 88% | 1023.4 hPa | - | - | - | - |
| 1787432422 | 13.89° C | 85% | 1023.3 hPa | - | - | - | - |
| 1787431522 | 13.89° C | 87% | 1023.3 hPa | - | - | - | - |
| 1787430622 | 13.89° C | 88% | 1023.2 hPa | - | - | - | - |
* Rain since midnight (hover to see other rain measurements)
** Current wind speed in m/s (hover to see current wind gust speed)